createdAt,value
2022-08-31T00:01:33.547Z,98592.81
2022-08-31T00:04:03.634Z,98582.25
2022-08-31T00:06:32.648Z,98589.91
2022-08-31T00:09:01.477Z,98600.81
2022-08-31T00:11:31.166Z,98589.81
2022-08-31T00:14:03.150Z,98597.38
2022-08-31T00:16:34.094Z,98596.56
2022-08-31T00:19:03.390Z,98588.38
2022-08-31T00:21:31.831Z,98594.41
2022-08-31T00:24:00.352Z,98589.44
2022-08-31T00:26:28.548Z,98592.44
2022-08-31T00:28:56.666Z,98592.66
2022-08-31T00:31:26.472Z,98595.19
2022-08-31T00:33:55.542Z,98593.94
2022-08-31T00:36:25.882Z,98594.47
2022-08-31T00:38:56.940Z,98593.75
2022-08-31T00:41:27.390Z,98590.06
2022-08-31T00:43:58.209Z,98587.13
2022-08-31T00:46:29.698Z,98600.97
2022-08-31T00:49:02.114Z,98595.53
2022-08-31T00:51:32.028Z,98603.59
2022-08-31T00:54:01.557Z,98599.88
2022-08-31T00:56:31.462Z,98597.81
2022-08-31T00:59:01.176Z,98597.66
2022-08-31T01:01:31.031Z,98596.50
2022-08-31T01:04:00.232Z,98591.03
2022-08-31T01:06:28.695Z,98593.94
2022-08-31T01:08:59.508Z,98593.13
2022-08-31T01:11:28.050Z,98596.44
2022-08-31T01:13:56.364Z,98588.38
2022-08-31T01:16:27.938Z,98594.47
2022-08-31T01:18:57.721Z,98594.75
2022-08-31T01:21:29.859Z,98580.78
2022-08-31T01:24:01.864Z,98580.66
2022-08-31T01:26:31.574Z,98579.03
2022-08-31T01:29:05.592Z,98574.91
2022-08-31T01:31:36.451Z,98578.38
2022-08-31T01:34:05.522Z,98580.94
2022-08-31T01:36:34.355Z,98580.84
2022-08-31T01:39:04.647Z,98584.31
2022-08-31T01:41:33.111Z,98579.19
2022-08-31T01:44:01.199Z,98580.88
2022-08-31T01:46:29.461Z,98581.50
2022-08-31T01:48:57.721Z,98579.41
2022-08-31T01:51:25.775Z,98574.03
2022-08-31T01:53:54.647Z,98578.38
2022-08-31T01:56:26.530Z,98575.50
2022-08-31T01:58:54.788Z,98585.00
2022-08-31T02:01:33.784Z,98583.25
2022-08-31T02:04:08.583Z,98580.53
2022-08-31T02:06:37.145Z,98578.91
2022-08-31T02:09:07.380Z,98579.31
2022-08-31T02:11:37.237Z,98582.09
2022-08-31T02:14:05.891Z,98579.34
2022-08-31T02:16:34.064Z,98574.94
2022-08-31T02:19:02.370Z,98575.81
2022-08-31T02:21:30.496Z,98571.75
2022-08-31T02:23:58.547Z,98568.97
2022-08-31T02:26:27.015Z,98566.50
2022-08-31T02:28:56.569Z,98566.38
2022-08-31T02:31:24.637Z,98574.09
2022-08-31T02:33:52.865Z,98569.34
2022-08-31T02:36:20.981Z,98567.06
2022-08-31T02:38:49.151Z,98571.94
2022-08-31T02:41:17.780Z,98570.94
2022-08-31T02:43:46.258Z,98575.00
2022-08-31T02:46:15.796Z,98576.88
2022-08-31T02:48:44.182Z,98565.97
2022-08-31T02:51:12.902Z,98564.88
2022-08-31T02:53:41.116Z,98558.59
2022-08-31T02:56:13.119Z,98558.34
2022-08-31T02:58:41.716Z,98567.59
2022-08-31T03:01:10.338Z,98566.47
2022-08-31T03:03:40.553Z,98565.56
2022-08-31T03:06:12.035Z,98563.03
2022-08-31T03:08:42.421Z,98564.00
2022-08-31T03:11:11.222Z,98564.06
2022-08-31T03:13:40.145Z,98561.06
2022-08-31T03:16:08.785Z,98560.00
2022-08-31T03:18:36.920Z,98562.19
2022-08-31T03:21:06.873Z,98563.22
2022-08-31T03:23:35.249Z,98563.34
2022-08-31T03:26:05.601Z,98559.16
2022-08-31T03:28:34.589Z,98555.47
2022-08-31T03:31:02.938Z,98556.75
2022-08-31T03:33:31.136Z,98551.56
2022-08-31T03:35:59.399Z,98564.50
2022-08-31T03:38:29.235Z,98571.91
2022-08-31T03:40:57.565Z,98580.19
2022-08-31T03:43:25.895Z,98577.47
2022-08-31T03:45:55.426Z,98575.69
2022-08-31T03:48:24.215Z,98580.53
2022-08-31T03:50:52.381Z,98580.84
2022-08-31T03:53:23.048Z,98581.53
2022-08-31T03:55:54.119Z,98579.53
2022-08-31T03:58:22.376Z,98586.38
2022-08-31T04:00:50.511Z,98587.63
2022-08-31T04:03:18.870Z,98591.84
2022-08-31T04:05:47.410Z,98588.53
2022-08-31T04:08:16.485Z,98589.28
2022-08-31T04:10:46.141Z,98589.47
2022-08-31T04:13:15.958Z,98593.59
2022-08-31T04:15:44.231Z,98588.72
2022-08-31T04:18:14.007Z,98590.97
2022-08-31T04:20:42.379Z,98578.28
2022-08-31T04:23:11.327Z,98579.56
2022-08-31T04:25:40.458Z,98577.44
2022-08-31T04:28:09.202Z,98582.75
2022-08-31T04:30:43.879Z,98582.66
2022-08-31T04:33:12.288Z,98581.25
2022-08-31T04:35:41.635Z,98580.72
2022-08-31T04:38:10.333Z,98584.91
2022-08-31T04:40:41.289Z,98580.41
2022-08-31T04:43:09.845Z,98588.97
2022-08-31T04:45:44.596Z,98589.09
2022-08-31T04:48:14.696Z,98585.06
2022-08-31T04:50:43.301Z,98585.50
2022-08-31T04:53:12.454Z,98584.75
2022-08-31T04:55:41.549Z,98593.69
2022-08-31T04:58:09.777Z,98604.56
2022-08-31T05:00:38.391Z,98597.31
2022-08-31T05:03:08.043Z,98603.16
2022-08-31T05:05:38.874Z,98604.28
2022-08-31T05:08:07.500Z,98610.94
2022-08-31T05:10:35.915Z,98618.09
2022-08-31T05:13:04.056Z,98617.88
2022-08-31T05:15:32.329Z,98612.50
2022-08-31T05:18:01.006Z,98620.41
2022-08-31T05:20:30.571Z,98620.84
2022-08-31T05:22:58.859Z,98618.22
2022-08-31T05:25:27.498Z,98619.91
2022-08-31T05:27:56.512Z,98621.38
2022-08-31T05:30:25.377Z,98626.34
2022-08-31T05:32:53.490Z,98627.41
2022-08-31T05:35:21.719Z,98628.78
2022-08-31T05:37:52.710Z,98623.31
2022-08-31T05:40:21.016Z,98626.56
2022-08-31T05:42:49.315Z,98628.03
2022-08-31T05:45:18.896Z,98626.34
2022-08-31T05:47:47.094Z,98625.16
2022-08-31T05:50:15.244Z,98630.22
2022-08-31T05:52:43.581Z,98636.72
2022-08-31T05:55:13.191Z,98640.97
2022-08-31T05:57:41.319Z,98633.88
2022-08-31T06:00:10.960Z,98632.03
2022-08-31T06:02:40.219Z,98632.41
2022-08-31T06:05:08.926Z,98643.78
2022-08-31T06:07:37.413Z,98646.56
2022-08-31T06:10:06.464Z,98646.56
2022-08-31T06:12:39.122Z,98649.91
2022-08-31T06:15:08.261Z,98652.94
2022-08-31T06:17:36.903Z,98654.69
2022-08-31T06:20:07.212Z,98654.34
2022-08-31T06:22:36.134Z,98660.38
2022-08-31T06:25:06.233Z,98666.25
2022-08-31T06:27:38.926Z,98660.38
2022-08-31T06:30:08.667Z,98661.72
2022-08-31T06:32:36.767Z,98659.06
2022-08-31T06:35:05.519Z,98654.03
2022-08-31T06:37:33.857Z,98665.50
2022-08-31T06:40:04.337Z,98663.88
2022-08-31T06:42:32.446Z,98671.06
2022-08-31T06:45:02.156Z,98667.28
2022-08-31T06:47:30.340Z,98667.31
2022-08-31T06:49:58.424Z,98682.44
2022-08-31T06:52:27.346Z,98679.78
2022-08-31T06:54:55.544Z,98684.91
2022-08-31T06:57:24.043Z,98677.38
2022-08-31T06:59:53.915Z,98676.56
2022-08-31T07:02:23.418Z,98678.13
2022-08-31T07:04:51.576Z,98683.81
2022-08-31T07:07:19.851Z,98686.25
2022-08-31T07:09:48.122Z,98687.88
2022-08-31T07:12:16.350Z,98697.13
2022-08-31T07:14:54.705Z,98692.69
2022-08-31T07:17:25.065Z,98690.25
2022-08-31T07:19:53.424Z,98691.06
2022-08-31T07:22:21.600Z,98686.13
2022-08-31T07:24:49.922Z,98689.09
2022-08-31T07:27:18.627Z,98700.34
2022-08-31T07:29:47.466Z,98686.78
2022-08-31T07:32:17.537Z,98684.63
2022-08-31T07:34:50.477Z,98687.00
2022-08-31T07:37:41.156Z,98693.50
2022-08-31T07:40:27.970Z,98702.38
2022-08-31T07:42:56.452Z,98697.50
2022-08-31T07:45:29.166Z,98697.41
2022-08-31T07:48:01.214Z,98706.16
2022-08-31T07:50:31.736Z,98702.00
2022-08-31T07:53:00.447Z,98710.41
2022-08-31T07:55:29.456Z,98714.69
2022-08-31T07:57:58.248Z,98708.50
2022-08-31T08:00:29.013Z,98704.91
2022-08-31T08:03:07.483Z,98708.47
2022-08-31T08:05:38.878Z,98714.53
2022-08-31T08:08:13.566Z,98709.00
2022-08-31T08:10:51.911Z,98702.47
2022-08-31T08:13:21.300Z,98709.84
2022-08-31T08:15:52.099Z,98708.00
2022-08-31T08:18:21.258Z,98707.28
2022-08-31T08:20:52.351Z,98712.56
2022-08-31T08:23:28.434Z,98714.25
2022-08-31T08:26:01.335Z,98713.50
2022-08-31T08:28:45.972Z,98715.09
2022-08-31T08:31:15.926Z,98708.38
2022-08-31T08:33:45.361Z,98711.22
2022-08-31T08:36:18.577Z,98720.09
2022-08-31T08:38:49.004Z,98720.53
2022-08-31T08:41:20.285Z,98720.13
2022-08-31T08:43:52.768Z,98722.94
2022-08-31T08:46:37.860Z,98716.09
2022-08-31T08:49:15.896Z,98715.19
2022-08-31T08:51:46.970Z,98712.47
2022-08-31T08:54:24.027Z,98718.41
2022-08-31T08:56:52.191Z,98707.53
2022-08-31T08:59:20.788Z,98711.16
2022-08-31T09:01:51.237Z,98705.91
2022-08-31T09:04:23.296Z,98713.09
2022-08-31T09:07:02.742Z,98706.97
2022-08-31T09:09:36.457Z,98701.56
2022-08-31T09:12:24.925Z,98697.59
2022-08-31T09:15:11.375Z,98696.94
2022-08-31T09:17:43.624Z,98699.22
2022-08-31T09:20:13.377Z,98690.56
2022-08-31T09:22:48.803Z,98681.13
2022-08-31T09:25:20.349Z,98683.25
2022-08-31T09:27:57.331Z,98685.59
2022-08-31T09:30:39.999Z,98682.56
2022-08-31T09:33:09.746Z,98682.28
2022-08-31T09:35:41.445Z,98682.25
2022-08-31T09:38:18.149Z,98681.41
2022-08-31T09:40:48.637Z,98676.09
2022-08-31T09:43:22.939Z,98669.19
2022-08-31T09:46:02.633Z,98665.22
2022-08-31T09:48:44.575Z,98664.03
2022-08-31T09:51:22.564Z,98663.97
2022-08-31T09:54:11.663Z,98658.75
2022-08-31T09:56:55.403Z,98665.84
2022-08-31T09:59:34.225Z,98662.75
2022-08-31T10:02:05.988Z,98660.50
2022-08-31T10:04:38.329Z,98658.53
2022-08-31T10:07:14.227Z,98651.69
2022-08-31T10:09:47.167Z,98661.38
2022-08-31T10:12:19.868Z,98657.81
2022-08-31T10:14:51.886Z,98652.41
2022-08-31T10:17:26.277Z,98654.41
2022-08-31T10:20:07.652Z,98655.72
2022-08-31T10:22:42.071Z,98652.56
2022-08-31T10:25:21.675Z,98650.81
2022-08-31T10:27:56.119Z,98661.66
2022-08-31T10:30:29.410Z,98657.78
2022-08-31T10:33:05.073Z,98647.06
2022-08-31T10:35:41.524Z,98644.59
2022-08-31T10:38:24.209Z,98646.66
2022-08-31T10:41:03.837Z,98638.06
2022-08-31T10:43:36.067Z,98633.97
2022-08-31T10:46:06.080Z,98640.16
2022-08-31T10:48:36.735Z,98639.97
2022-08-31T10:51:13.194Z,98651.88
2022-08-31T10:53:53.052Z,98648.63
2022-08-31T10:56:40.589Z,98645.81
2022-08-31T10:59:25.000Z,98634.31
2022-08-31T11:02:16.840Z,98649.31
2022-08-31T11:04:55.833Z,98634.66
2022-08-31T11:07:46.934Z,98632.53
2022-08-31T11:10:26.689Z,98629.59
2022-08-31T11:13:02.662Z,98637.34
2022-08-31T11:15:44.146Z,98633.03
2022-08-31T11:18:41.576Z,98635.25
2022-08-31T11:21:42.270Z,98630.28
2022-08-31T11:24:36.998Z,98625.94
2022-08-31T11:27:11.988Z,98619.38
2022-08-31T11:29:44.707Z,98612.84
2022-08-31T11:32:20.154Z,98623.16
2022-08-31T11:34:51.826Z,98616.81
2022-08-31T11:37:52.484Z,98614.50
2022-08-31T11:41:06.315Z,98606.66
2022-08-31T11:43:46.415Z,98611.88
2022-08-31T11:46:47.690Z,98609.19
2022-08-31T11:49:54.370Z,98608.19
2022-08-31T11:52:43.610Z,98600.47
2022-08-31T11:55:21.334Z,98606.19
2022-08-31T11:58:26.186Z,98601.66
2022-08-31T12:01:01.794Z,98601.28
2022-08-31T12:03:53.234Z,98597.59
2022-08-31T12:07:07.587Z,98599.84
2022-08-31T12:10:00.415Z,98584.97
2022-08-31T12:12:43.915Z,98595.59
2022-08-31T12:15:22.876Z,98593.16
2022-08-31T12:18:06.137Z,98583.91
2022-08-31T12:21:13.579Z,98594.38
2022-08-31T12:23:49.417Z,98584.22
2022-08-31T12:26:27.391Z,98584.72
2022-08-31T12:29:26.995Z,98592.72
2022-08-31T12:32:20.816Z,98589.06
2022-08-31T12:34:53.895Z,98582.75
2022-08-31T12:37:28.821Z,98576.44
2022-08-31T12:40:19.990Z,98566.19
2022-08-31T12:42:59.449Z,98559.75
2022-08-31T12:45:45.359Z,98564.19
2022-08-31T12:48:22.664Z,98557.31
2022-08-31T12:50:57.506Z,98568.59
2022-08-31T12:54:03.177Z,98567.81
2022-08-31T12:56:37.079Z,98565.38
2022-08-31T12:59:17.634Z,98563.59
2022-08-31T13:01:48.186Z,98566.13
2022-08-31T13:04:18.345Z,98568.66
2022-08-31T13:06:48.471Z,98563.00
2022-08-31T13:09:29.123Z,98564.81
2022-08-31T13:11:59.156Z,98574.59
2022-08-31T13:14:29.559Z,98567.72
2022-08-31T13:17:01.951Z,98557.19
2022-08-31T13:19:33.340Z,98560.50
2022-08-31T13:22:01.915Z,98554.16
2022-08-31T13:24:33.652Z,98575.03
2022-08-31T13:27:08.204Z,98565.34
2022-08-31T13:29:44.267Z,98562.19
2022-08-31T13:32:14.962Z,98566.19
2022-08-31T13:34:43.210Z,98562.59
2022-08-31T13:37:15.509Z,98568.63
2022-08-31T13:39:47.015Z,98561.38
2022-08-31T13:42:28.536Z,98554.50
2022-08-31T13:45:00.467Z,98555.28
2022-08-31T13:47:32.084Z,98554.50
2022-08-31T13:50:07.391Z,98561.34
2022-08-31T13:52:37.120Z,98560.16
2022-08-31T13:55:09.408Z,98559.31
2022-08-31T13:57:38.514Z,98554.91
2022-08-31T14:00:29.622Z,98542.72
2022-08-31T14:03:01.774Z,98550.09
2022-08-31T14:05:33.414Z,98549.69
2022-08-31T14:08:03.915Z,98552.91
2022-08-31T14:10:36.302Z,98548.50
2022-08-31T14:13:10.205Z,98554.13
2022-08-31T14:15:42.302Z,98544.84
2022-08-31T14:18:25.321Z,98550.91
2022-08-31T14:21:23.181Z,98552.06
2022-08-31T14:23:54.242Z,98548.50
2022-08-31T14:26:29.114Z,98550.06
2022-08-31T14:29:00.446Z,98546.88
2022-08-31T14:31:32.834Z,98545.63
2022-08-31T14:34:23.261Z,98544.81
2022-08-31T14:36:57.648Z,98548.47
2022-08-31T14:39:30.082Z,98547.28
2022-08-31T14:42:02.097Z,98538.03
2022-08-31T14:44:33.560Z,98544.47
2022-08-31T14:47:02.474Z,98538.41
2022-08-31T14:49:36.046Z,98538.03
2022-08-31T14:52:06.956Z,98538.03
2022-08-31T14:54:37.545Z,98533.19
2022-08-31T14:57:12.546Z,98539.66
2022-08-31T14:59:43.498Z,98529.56
2022-08-31T15:02:12.988Z,98533.13
2022-08-31T15:04:45.966Z,98537.63
2022-08-31T15:07:15.925Z,98528.34
2022-08-31T15:09:47.806Z,98532.94
2022-08-31T15:12:20.208Z,98526.91
2022-08-31T15:14:49.900Z,98525.03
2022-08-31T15:17:20.706Z,98536.19
2022-08-31T15:19:55.373Z,98535.53
2022-08-31T15:22:25.771Z,98532.41
2022-08-31T15:24:54.937Z,98531.06
2022-08-31T15:27:29.252Z,98532.19
2022-08-31T15:30:07.718Z,98536.81
2022-08-31T15:32:42.245Z,98534.94
2022-08-31T15:35:14.348Z,98542.59
2022-08-31T15:37:45.065Z,98543.50
2022-08-31T15:40:14.024Z,98539.06
2022-08-31T15:42:48.587Z,98539.16
2022-08-31T15:45:17.266Z,98538.03
2022-08-31T15:48:03.051Z,98549.50
2022-08-31T15:50:32.755Z,98541.63
2022-08-31T15:53:09.022Z,98546.06
2022-08-31T15:55:40.610Z,98536.84
2022-08-31T15:58:10.703Z,98536.09
2022-08-31T16:00:42.085Z,98541.88
2022-08-31T16:03:10.634Z,98539.50
2022-08-31T16:05:39.973Z,98535.09
2022-08-31T16:08:11.408Z,98532.91
2022-08-31T16:10:43.307Z,98529.47
2022-08-31T16:13:13.495Z,98524.94
2022-08-31T16:15:41.588Z,98527.31
2022-08-31T16:18:11.434Z,98526.13
2022-08-31T16:20:41.158Z,98533.94
2022-08-31T16:23:09.226Z,98528.81
2022-08-31T16:25:48.441Z,98533.28
2022-08-31T16:28:19.713Z,98538.06
2022-08-31T16:30:48.142Z,98528.69
2022-08-31T16:33:16.265Z,98538.75
2022-08-31T16:35:46.060Z,98532.63
2022-08-31T16:38:14.809Z,98532.25
2022-08-31T16:40:43.216Z,98536.09
2022-08-31T16:43:12.071Z,98534.66
2022-08-31T16:45:42.527Z,98533.94
2022-08-31T16:48:29.793Z,98539.16
2022-08-31T16:51:02.443Z,98534.31
2022-08-31T16:53:31.213Z,98532.81
2022-08-31T16:56:00.060Z,98536.16
2022-08-31T16:58:50.538Z,98542.63
2022-08-31T17:01:22.067Z,98537.59
2022-08-31T17:03:52.394Z,98541.50
2022-08-31T17:06:21.145Z,98544.25
2022-08-31T17:08:49.433Z,98546.06
2022-08-31T17:11:21.231Z,98551.13
2022-08-31T17:13:50.213Z,98552.06
2022-08-31T17:16:22.255Z,98550.72
2022-08-31T17:18:51.729Z,98546.75
2022-08-31T17:21:22.450Z,98553.47
2022-08-31T17:23:52.575Z,98562.03
2022-08-31T17:26:21.446Z,98562.81
2022-08-31T17:28:55.019Z,98563.22
2022-08-31T17:31:26.468Z,98569.59
2022-08-31T17:33:56.391Z,98569.91
2022-08-31T17:36:25.665Z,98576.81
2022-08-31T17:38:55.245Z,98567.38
2022-08-31T17:41:26.692Z,98571.59
2022-08-31T17:43:57.382Z,98569.44
2022-08-31T17:46:27.753Z,98573.94
2022-08-31T17:48:57.173Z,98580.50
2022-08-31T17:51:28.141Z,98581.09
2022-08-31T17:53:58.028Z,98584.53
2022-08-31T17:56:28.695Z,98581.22
2022-08-31T17:58:56.773Z,98588.50
2022-08-31T18:01:31.042Z,98584.41
2022-08-31T18:04:00.642Z,98591.00
2022-08-31T18:06:29.386Z,98600.50
2022-08-31T18:08:58.979Z,98593.44
2022-08-31T18:11:27.998Z,98600.31
2022-08-31T18:13:57.339Z,98597.88
2022-08-31T18:16:26.886Z,98601.19
2022-08-31T18:18:55.324Z,98606.19
2022-08-31T18:21:24.669Z,98606.72
2022-08-31T18:23:53.868Z,98599.38
2022-08-31T18:26:24.201Z,98596.88
2022-08-31T18:28:53.414Z,98595.19
2022-08-31T18:31:30.441Z,98603.22
2022-08-31T18:34:02.758Z,98602.16
2022-08-31T18:36:32.145Z,98603.16
2022-08-31T18:39:01.812Z,98606.41
2022-08-31T18:41:50.494Z,98603.22
2022-08-31T18:44:51.221Z,98609.63
2022-08-31T18:47:21.278Z,98611.09
2022-08-31T18:49:52.337Z,98602.34
2022-08-31T18:52:22.758Z,98612.50
2022-08-31T18:54:52.469Z,98608.75
2022-08-31T18:57:23.082Z,98613.53
2022-08-31T18:59:51.531Z,98609.38
2022-08-31T19:02:21.507Z,98613.00
2022-08-31T19:04:51.802Z,98609.00
2022-08-31T19:07:21.649Z,98603.03
2022-08-31T19:09:49.912Z,98613.75
2022-08-31T19:12:19.604Z,98610.56
2022-08-31T19:14:50.601Z,98618.31
2022-08-31T19:17:19.750Z,98624.38
2022-08-31T19:19:51.196Z,98614.88
2022-08-31T19:22:20.327Z,98615.47
2022-08-31T19:24:49.731Z,98614.66
2022-08-31T19:27:18.289Z,98599.25
2022-08-31T19:29:46.377Z,98605.78
2022-08-31T19:32:14.786Z,98606.28
2022-08-31T19:34:44.137Z,98598.66
2022-08-31T19:37:15.656Z,98592.78
2022-08-31T19:39:45.789Z,98598.56
2022-08-31T19:42:16.655Z,98589.19
2022-08-31T19:44:55.917Z,98596.34
2022-08-31T19:47:38.907Z,98594.25
2022-08-31T19:50:13.514Z,98599.78
2022-08-31T19:52:43.749Z,98601.72
2022-08-31T19:55:12.519Z,98596.81
2022-08-31T19:57:43.676Z,98595.88
2022-08-31T20:00:13.585Z,98595.50
2022-08-31T20:02:44.749Z,98599.94
2022-08-31T20:05:15.306Z,98598.78
2022-08-31T20:07:45.544Z,98601.72
2022-08-31T20:10:14.488Z,98601.97
2022-08-31T20:12:46.642Z,98609.16
2022-08-31T20:15:15.591Z,98611.97
2022-08-31T20:17:43.859Z,98608.38
2022-08-31T20:20:13.537Z,98612.09
2022-08-31T20:22:41.913Z,98615.38
2022-08-31T20:25:18.062Z,98610.63
2022-08-31T20:27:50.461Z,98607.69
2022-08-31T20:30:19.530Z,98609.78
2022-08-31T20:32:47.879Z,98610.59
2022-08-31T20:35:16.413Z,98618.59
2022-08-31T20:37:46.835Z,98611.53
2022-08-31T20:40:17.341Z,98615.41
2022-08-31T20:42:46.357Z,98612.88
2022-08-31T20:45:20.762Z,98618.53
2022-08-31T20:48:06.528Z,98622.56
2022-08-31T20:50:35.849Z,98615.13
2022-08-31T20:53:07.201Z,98616.75
2022-08-31T20:55:37.433Z,98618.78
2022-08-31T20:58:06.799Z,98623.13
2022-08-31T21:00:34.897Z,98617.53
2022-08-31T21:03:03.888Z,98611.41
2022-08-31T21:05:38.475Z,98613.28
2022-08-31T21:08:07.074Z,98615.78
2022-08-31T21:10:38.713Z,98619.34
2022-08-31T21:13:13.068Z,98614.44
2022-08-31T21:15:44.195Z,98611.03
2022-08-31T21:18:13.021Z,98619.31
2022-08-31T21:20:41.151Z,98610.91
2022-08-31T21:23:10.658Z,98611.97
2022-08-31T21:25:45.312Z,98612.81
2022-08-31T21:28:17.602Z,98606.84
2022-08-31T21:30:47.308Z,98616.72
2022-08-31T21:33:16.427Z,98620.00
2022-08-31T21:35:44.676Z,98613.16
2022-08-31T21:38:13.516Z,98615.25
2022-08-31T21:40:49.770Z,98615.50
2022-08-31T21:43:18.268Z,98614.88
2022-08-31T21:45:47.010Z,98613.03
2022-08-31T21:48:15.262Z,98607.56
2022-08-31T21:50:43.950Z,98607.78
2022-08-31T21:53:13.058Z,98607.47
2022-08-31T21:55:41.104Z,98614.09
2022-08-31T21:58:11.172Z,98605.81
2022-08-31T22:00:42.313Z,98613.59
2022-08-31T22:03:12.354Z,98604.09
2022-08-31T22:05:41.802Z,98617.88
2022-08-31T22:08:10.041Z,98611.66
2022-08-31T22:10:41.147Z,98615.44
2022-08-31T22:13:11.500Z,98610.22
2022-08-31T22:15:41.308Z,98618.28
2022-08-31T22:18:58.078Z,98611.56
2022-08-31T22:21:00.330Z,98618.88
2022-08-31T22:23:29.096Z,98615.50
2022-08-31T22:25:57.654Z,98621.72
2022-08-31T22:28:27.877Z,98616.53
2022-08-31T22:30:56.192Z,98611.69
2022-08-31T22:33:24.483Z,98611.28
2022-08-31T22:35:52.891Z,98612.91
2022-08-31T22:38:21.166Z,98606.28
2022-08-31T22:40:51.011Z,98606.34
2022-08-31T22:43:19.618Z,98612.72
2022-08-31T22:45:49.636Z,98618.66
2022-08-31T22:48:17.898Z,98605.72
2022-08-31T22:50:46.445Z,98615.75
2022-08-31T22:53:14.950Z,98605.34
2022-08-31T22:55:43.271Z,98604.91
2022-08-31T22:58:12.554Z,98600.94
2022-08-31T23:00:41.115Z,98612.63
2022-08-31T23:03:13.700Z,98604.63
2022-08-31T23:05:43.637Z,98603.09
2022-08-31T23:08:12.520Z,98608.00
2022-08-31T23:10:41.424Z,98605.06
2022-08-31T23:13:09.719Z,98600.97
2022-08-31T23:15:38.538Z,98600.50
2022-08-31T23:18:10.718Z,98606.88
2022-08-31T23:20:42.017Z,98606.00
2022-08-31T23:23:10.646Z,98603.38
2022-08-31T23:25:40.445Z,98608.91
2022-08-31T23:28:08.800Z,98600.75
2022-08-31T23:30:38.334Z,98600.13
2022-08-31T23:33:07.024Z,98601.78
2022-08-31T23:35:35.465Z,98599.69
2022-08-31T23:38:05.040Z,98597.66
2022-08-31T23:40:34.299Z,98596.44
2022-08-31T23:43:04.044Z,98590.94
2022-08-31T23:45:33.334Z,98590.94
2022-08-31T23:48:02.253Z,98591.75
2022-08-31T23:50:30.510Z,98591.44
2022-08-31T23:52:58.719Z,98584.75
2022-08-31T23:55:31.313Z,98590.69
2022-08-31T23:57:59.766Z,98596.72
